Time;durP1;ratioP1;P1;durP2;ratioP2;P2;SDS_P1;SDS_P2;PMS_P1;PMS_P2;Temp;Humidity;BMP_temperature;BMP_pressure;BME280_temperature;BME280_humidity;BME280_pressure;Samples;Min_cycle;Max_cycle;Signal;HPM_P1;HPM_P2
2022/03/26 00:00:46;;;;;;;571.07;518.23;;;;;;;;;;;;;-53
2022/03/26 00:03:45;;;;;;;567.79;515.15;;;;;;;;;;;;;-52
2022/03/26 00:06:45;;;;;;;568.73;516.08;;;;;;;;;;;;;-58
2022/03/26 00:09:45;;;;;;;569.39;516.61;;;;;;;;;;;;;-51
2022/03/26 00:12:46;;;;;;;567.78;515.15;;;;;;;;;;;;;-58
2022/03/26 00:15:45;;;;;;;569.23;516.60;;;;;;;;;;;;;-57
2022/03/26 00:18:45;;;;;;;563.51;511.18;;;;;;;;;;;;;-58
2022/03/26 00:21:47;;;;;;;569.50;516.77;;;;;;;;;;;;;-51
2022/03/26 00:24:45;;;;;;;569.41;516.67;;;;;;;;;;;;;-53
2022/03/26 00:27:45;;;;;;;565.73;513.23;;;;;;;;;;;;;-57
2022/03/26 00:30:45;;;;;;;566.79;514.19;;;;;;;;;;;;;-51
2022/03/26 00:33:45;;;;;;;569.02;516.29;;;;;;;;;;;;;-52
2022/03/26 00:36:45;;;;;;;567.28;514.75;;;;;;;;;;;;;-59
2022/03/26 00:39:45;;;;;;;562.11;509.86;;;;;;;;;;;;;-57
2022/03/26 00:42:45;;;;;;;560.83;508.43;;;;;;;;;;;;;-59
2022/03/26 00:45:45;;;;;;;561.27;508.91;;;;;;;;;;;;;-54
2022/03/26 00:48:46;;;;;;;563.76;511.41;;;;;;;;;;;;;-54
2022/03/26 00:51:45;;;;;;;557.41;505.20;;;;;;;;;;;;;-51
2022/03/26 00:54:45;;;;;;;556.63;504.57;;;;;;;;;;;;;-54
2022/03/26 00:57:45;;;;;;;560.72;508.31;;;;;;;;;;;;;-54
2022/03/26 01:00:46;;;;;;;562.90;510.61;;;;;;;;;;;;;-53
2022/03/26 01:03:45;;;;;;;561.82;509.47;;;;;;;;;;;;;-54
2022/03/26 01:06:45;;;;;;;556.95;504.77;;;;;;;;;;;;;-51
2022/03/26 01:09:45;;;;;;;555.64;503.53;;;;;;;;;;;;;-52
2022/03/26 01:12:45;;;;;;;558.13;505.91;;;;;;;;;;;;;-54
2022/03/26 01:15:45;;;;;;;555.57;503.55;;;;;;;;;;;;;-51
2022/03/26 01:18:45;;;;;;;558.38;506.23;;;;;;;;;;;;;-58
2022/03/26 01:21:45;;;;;;;555.96;503.84;;;;;;;;;;;;;-58
2022/03/26 01:24:45;;;;;;;557.22;505.14;;;;;;;;;;;;;-58
2022/03/26 01:27:45;;;;;;;558.57;506.43;;;;;;;;;;;;;-57
2022/03/26 01:30:45;;;;;;;559.37;507.19;;;;;;;;;;;;;-52
2022/03/26 01:33:45;;;;;;;559.60;507.29;;;;;;;;;;;;;-53
2022/03/26 01:36:45;;;;;;;556.07;503.90;;;;;;;;;;;;;-57
2022/03/26 01:39:45;;;;;;;554.65;502.66;;;;;;;;;;;;;-58
2022/03/26 01:42:46;;;;;;;554.01;501.97;;;;;;;;;;;;;-57
2022/03/26 01:45:45;;;;;;;555.71;503.59;;;;;;;;;;;;;-53
2022/03/26 01:48:45;;;;;;;555.72;503.61;;;;;;;;;;;;;-54
2022/03/26 01:51:45;;;;;;;556.78;504.51;;;;;;;;;;;;;-58
2022/03/26 01:54:45;;;;;;;557.82;505.67;;;;;;;;;;;;;-59
2022/03/26 01:57:45;;;;;;;557.64;505.52;;;;;;;;;;;;;-53
2022/03/26 02:00:46;;;;;;;558.09;505.95;;;;;;;;;;;;;-59
2022/03/26 02:03:45;;;;;;;553.49;501.32;;;;;;;;;;;;;-59
2022/03/26 02:06:46;;;;;;;557.63;505.44;;;;;;;;;;;;;-58
2022/03/26 02:09:47;;;;;;;555.41;503.36;;;;;;;;;;;;;-59
2022/03/26 02:12:46;;;;;;;554.09;502.12;;;;;;;;;;;;;-52
2022/03/26 02:15:45;;;;;;;557.52;505.55;;;;;;;;;;;;;-57
2022/03/26 02:18:45;;;;;;;558.20;506.08;;;;;;;;;;;;;-54
2022/03/26 02:21:47;;;;;;;556.69;504.52;;;;;;;;;;;;;-59
2022/03/26 02:24:45;;;;;;;552.59;500.65;;;;;;;;;;;;;-59
2022/03/26 02:27:45;;;;;;;555.35;503.24;;;;;;;;;;;;;-54
2022/03/26 02:30:45;;;;;;;552.75;500.76;;;;;;;;;;;;;-57
2022/03/26 02:33:45;;;;;;;555.25;503.13;;;;;;;;;;;;;-56
2022/03/26 02:36:45;;;;;;;554.27;502.25;;;;;;;;;;;;;-59
2022/03/26 02:39:45;;;;;;;556.29;504.17;;;;;;;;;;;;;-59
2022/03/26 02:42:45;;;;;;;557.21;505.17;;;;;;;;;;;;;-58
2022/03/26 02:45:45;;;;;;;551.52;499.61;;;;;;;;;;;;;-59
2022/03/26 02:48:45;;;;;;;550.61;498.77;;;;;;;;;;;;;-54
2022/03/26 02:51:45;;;;;;;551.73;499.75;;;;;;;;;;;;;-54
2022/03/26 02:54:45;;;;;;;554.12;502.13;;;;;;;;;;;;;-59
2022/03/26 02:57:46;;;;;;;553.03;501.00;;;;;;;;;;;;;-53
2022/03/26 03:00:45;;;;;;;551.82;499.97;;;;;;;;;;;;;-57
2022/03/26 03:03:45;;;;;;;551.03;499.21;;;;;;;;;;;;;-58
2022/03/26 03:06:45;;;;;;;551.95;500.09;;;;;;;;;;;;;-58
2022/03/26 03:09:45;;;;;;;549.63;497.63;;;;;;;;;;;;;-54
2022/03/26 03:12:46;;;;;;;548.79;497.02;;;;;;;;;;;;;-53
2022/03/26 03:15:45;;;;;;;550.74;498.91;;;;;;;;;;;;;-53
2022/03/26 03:18:45;;;;;;;548.81;497.07;;;;;;;;;;;;;-54
2022/03/26 03:21:45;;;;;;;550.91;499.01;;;;;;;;;;;;;-51
2022/03/26 03:24:45;;;;;;;546.98;495.16;;;;;;;;;;;;;-57
2022/03/26 03:27:45;;;;;;;546.82;495.13;;;;;;;;;;;;;-51
2022/03/26 03:30:45;;;;;;;543.08;491.41;;;;;;;;;;;;;-52
2022/03/26 03:33:46;;;;;;;541.11;489.69;;;;;;;;;;;;;-52
2022/03/26 03:36:45;;;;;;;544.20;492.58;;;;;;;;;;;;;-51
2022/03/26 03:39:45;;;;;;;548.70;496.89;;;;;;;;;;;;;-58
2022/03/26 03:42:45;;;;;;;542.60;491.05;;;;;;;;;;;;;-54
2022/03/26 03:45:45;;;;;;;543.13;491.62;;;;;;;;;;;;;-56
2022/03/26 03:48:45;;;;;;;546.55;494.88;;;;;;;;;;;;;-54
2022/03/26 03:51:45;;;;;;;544.52;492.85;;;;;;;;;;;;;-54
2022/03/26 03:54:45;;;;;;;541.57;490.06;;;;;;;;;;;;;-53
2022/03/26 03:57:45;;;;;;;541.56;490.03;;;;;;;;;;;;;-58
2022/03/26 04:00:45;;;;;;;541.62;489.89;;;;;;;;;;;;;-57
2022/03/26 04:03:45;;;;;;;543.61;491.93;;;;;;;;;;;;;-57
2022/03/26 04:06:45;;;;;;;542.44;490.90;;;;;;;;;;;;;-58
2022/03/26 04:09:45;;;;;;;542.67;491.29;;;;;;;;;;;;;-58
2022/03/26 04:12:45;;;;;;;547.45;495.62;;;;;;;;;;;;;-54
2022/03/26 04:15:45;;;;;;;542.43;490.88;;;;;;;;;;;;;-58
2022/03/26 04:18:45;;;;;;;542.83;491.39;;;;;;;;;;;;;-57
2022/03/26 04:21:45;;;;;;;546.39;494.77;;;;;;;;;;;;;-54
2022/03/26 04:24:45;;;;;;;546.92;495.21;;;;;;;;;;;;;-59
2022/03/26 04:27:46;;;;;;;545.54;493.78;;;;;;;;;;;;;-57
2022/03/26 04:30:46;;;;;;;544.13;492.51;;;;;;;;;;;;;-57
2022/03/26 04:33:45;;;;;;;544.10;492.49;;;;;;;;;;;;;-58
2022/03/26 04:36:45;;;;;;;542.67;491.17;;;;;;;;;;;;;-57
2022/03/26 04:39:45;;;;;;;547.88;496.23;;;;;;;;;;;;;-59
2022/03/26 04:42:45;;;;;;;541.55;490.01;;;;;;;;;;;;;-51
2022/03/26 04:45:45;;;;;;;543.30;491.76;;;;;;;;;;;;;-57
2022/03/26 04:48:45;;;;;;;540.06;488.66;;;;;;;;;;;;;-58
2022/03/26 04:51:45;;;;;;;543.62;492.04;;;;;;;;;;;;;-59
2022/03/26 04:54:48;;;;;;;544.63;493.21;;;;;;;;;;;;;-52
2022/03/26 04:57:45;;;;;;;546.28;494.65;;;;;;;;;;;;;-52
2022/03/26 05:00:45;;;;;;;543.19;491.62;;;;;;;;;;;;;-58
2022/03/26 05:03:45;;;;;;;541.29;489.77;;;;;;;;;;;;;-58
2022/03/26 05:06:45;;;;;;;542.47;490.92;;;;;;;;;;;;;-59
2022/03/26 05:09:45;;;;;;;542.46;490.81;;;;;;;;;;;;;-58
2022/03/26 05:12:45;;;;;;;541.14;489.57;;;;;;;;;;;;;-58
2022/03/26 05:15:45;;;;;;;540.70;489.28;;;;;;;;;;;;;-51
2022/03/26 05:18:45;;;;;;;538.74;487.39;;;;;;;;;;;;;-52
2022/03/26 05:21:45;;;;;;;539.99;488.60;;;;;;;;;;;;;-51
2022/03/26 05:24:45;;;;;;;540.84;489.47;;;;;;;;;;;;;-58
2022/03/26 05:27:45;;;;;;;541.46;490.08;;;;;;;;;;;;;-52
2022/03/26 05:30:45;;;;;;;541.23;489.52;;;;;;;;;;;;;-52
2022/03/26 05:33:45;;;;;;;539.88;488.41;;;;;;;;;;;;;-52
2022/03/26 05:36:45;;;;;;;539.56;488.17;;;;;;;;;;;;;-52
2022/03/26 05:39:45;;;;;;;538.35;487.02;;;;;;;;;;;;;-54
2022/03/26 05:42:45;;;;;;;542.41;490.97;;;;;;;;;;;;;-53
2022/03/26 05:45:45;;;;;;;536.95;485.60;;;;;;;;;;;;;-59
2022/03/26 05:48:45;;;;;;;535.87;484.61;;;;;;;;;;;;;-56
2022/03/26 05:51:45;;;;;;;535.56;484.35;;;;;;;;;;;;;-57
2022/03/26 05:54:45;;;;;;;535.28;484.10;;;;;;;;;;;;;-58
2022/03/26 05:57:45;;;;;;;535.53;484.35;;;;;;;;;;;;;-57
2022/03/26 06:00:47;;;;;;;534.88;483.66;;;;;;;;;;;;;-53
2022/03/26 06:03:45;;;;;;;539.85;488.53;;;;;;;;;;;;;-52
2022/03/26 06:06:46;;;;;;;535.70;484.48;;;;;;;;;;;;;-54
2022/03/26 06:09:45;;;;;;;536.20;484.89;;;;;;;;;;;;;-54
2022/03/26 06:12:45;;;;;;;535.33;484.10;;;;;;;;;;;;;-59
2022/03/26 06:15:45;;;;;;;538.67;487.37;;;;;;;;;;;;;-54
2022/03/26 06:18:45;;;;;;;537.07;485.87;;;;;;;;;;;;;-57
2022/03/26 06:21:45;;;;;;;536.27;485.03;;;;;;;;;;;;;-58
2022/03/26 06:24:45;;;;;;;534.61;483.48;;;;;;;;;;;;;-59
2022/03/26 06:27:45;;;;;;;534.86;483.73;;;;;;;;;;;;;-58
2022/03/26 06:30:46;;;;;;;525.93;475.07;;;;;;;;;;;;;-52
2022/03/26 06:33:45;;;;;;;528.23;477.43;;;;;;;;;;;;;-52
2022/03/26 06:36:45;;;;;;;531.79;480.79;;;;;;;;;;;;;-57
2022/03/26 06:39:45;;;;;;;524.77;473.83;;;;;;;;;;;;;-54
2022/03/26 06:42:45;;;;;;;522.74;472.05;;;;;;;;;;;;;-54
2022/03/26 06:45:45;;;;;;;527.28;476.38;;;;;;;;;;;;;-58
2022/03/26 06:48:45;;;;;;;526.75;475.98;;;;;;;;;;;;;-57
2022/03/26 06:51:46;;;;;;;527.10;476.25;;;;;;;;;;;;;-54
2022/03/26 06:54:45;;;;;;;524.37;473.68;;;;;;;;;;;;;-58
2022/03/26 06:57:45;;;;;;;528.50;477.61;;;;;;;;;;;;;-52
2022/03/26 07:00:45;;;;;;;525.19;474.41;;;;;;;;;;;;;-54
2022/03/26 07:03:45;;;;;;;523.85;473.10;;;;;;;;;;;;;-59
2022/03/26 07:06:45;;;;;;;528.42;477.62;;;;;;;;;;;;;-57
2022/03/26 07:09:45;;;;;;;531.08;480.03;;;;;;;;;;;;;-51
2022/03/26 07:12:46;;;;;;;529.51;478.55;;;;;;;;;;;;;-58
2022/03/26 07:15:45;;;;;;;530.64;479.68;;;;;;;;;;;;;-54
2022/03/26 07:18:45;;;;;;;531.91;480.79;;;;;;;;;;;;;-53
2022/03/26 07:21:45;;;;;;;528.05;477.31;;;;;;;;;;;;;-52
2022/03/26 07:24:45;;;;;;;529.03;478.09;;;;;;;;;;;;;-57
2022/03/26 07:27:45;;;;;;;531.17;480.12;;;;;;;;;;;;;-57
2022/03/26 07:30:45;;;;;;;528.69;477.81;;;;;;;;;;;;;-51
2022/03/26 07:33:45;;;;;;;531.60;480.65;;;;;;;;;;;;;-59
2022/03/26 07:36:45;;;;;;;531.33;480.34;;;;;;;;;;;;;-59
2022/03/26 07:39:45;;;;;;;532.90;481.90;;;;;;;;;;;;;-54
2022/03/26 07:42:45;;;;;;;531.17;480.21;;;;;;;;;;;;;-57
2022/03/26 07:45:45;;;;;;;532.80;481.65;;;;;;;;;;;;;-58
2022/03/26 07:48:45;;;;;;;533.21;482.20;;;;;;;;;;;;;-58
2022/03/26 07:51:45;;;;;;;533.43;482.38;;;;;;;;;;;;;-59
2022/03/26 07:54:45;;;;;;;529.25;478.28;;;;;;;;;;;;;-57
2022/03/26 07:57:45;;;;;;;528.93;478.08;;;;;;;;;;;;;-52
2022/03/26 08:00:45;;;;;;;533.16;482.01;;;;;;;;;;;;;-59
2022/03/26 08:03:46;;;;;;;531.41;480.35;;;;;;;;;;;;;-54
2022/03/26 08:06:45;;;;;;;531.79;480.79;;;;;;;;;;;;;-54
2022/03/26 08:09:45;;;;;;;529.53;478.68;;;;;;;;;;;;;-54
2022/03/26 08:12:45;;;;;;;528.99;478.13;;;;;;;;;;;;;-52
2022/03/26 08:15:45;;;;;;;529.36;478.37;;;;;;;;;;;;;-53
2022/03/26 08:18:46;;;;;;;529.62;478.79;;;;;;;;;;;;;-51
2022/03/26 08:21:45;;;;;;;530.80;479.85;;;;;;;;;;;;;-52
2022/03/26 08:24:45;;;;;;;528.45;477.50;;;;;;;;;;;;;-52
2022/03/26 08:27:45;;;;;;;528.45;476.86;;;;;;;;;;;;;-57
2022/03/26 08:30:45;;;;;;;523.58;472.05;;;;;;;;;;;;;-58
2022/03/26 08:33:45;;;;;;;522.37;471.11;;;;;;;;;;;;;-57
2022/03/26 08:36:45;;;;;;;521.57;470.10;;;;;;;;;;;;;-57
2022/03/26 08:39:45;;;;;;;524.69;473.29;;;;;;;;;;;;;-57
2022/03/26 08:42:45;;;;;;;521.60;470.07;;;;;;;;;;;;;-58
2022/03/26 08:45:45;;;;;;;514.22;462.80;;;;;;;;;;;;;-58
2022/03/26 08:48:45;;;;;;;516.17;464.44;;;;;;;;;;;;;-60
2022/03/26 08:51:45;;;;;;;520.32;468.73;;;;;;;;;;;;;-59
2022/03/26 08:54:45;;;;;;;521.03;469.35;;;;;;;;;;;;;-59
2022/03/26 08:57:45;;;;;;;518.81;467.29;;;;;;;;;;;;;-58
2022/03/26 09:00:47;;;;;;;518.02;466.51;;;;;;;;;;;;;-57
2022/03/26 09:03:46;;;;;;;518.38;466.73;;;;;;;;;;;;;-57
2022/03/26 09:06:45;;;;;;;514.95;463.38;;;;;;;;;;;;;-57
2022/03/26 09:09:45;;;;;;;514.55;463.03;;;;;;;;;;;;;-57
2022/03/26 09:12:46;;;;;;;516.19;464.49;;;;;;;;;;;;;-59
2022/03/26 09:15:45;;;;;;;517.73;466.07;;;;;;;;;;;;;-58
2022/03/26 09:18:46;;;;;;;517.57;466.13;;;;;;;;;;;;;-59
2022/03/26 09:21:46;;;;;;;516.03;464.49;;;;;;;;;;;;;-58
2022/03/26 09:24:45;;;;;;;514.80;463.18;;;;;;;;;;;;;-58
2022/03/26 09:27:46;;;;;;;512.53;460.93;;;;;;;;;;;;;-58
2022/03/26 09:30:45;;;;;;;510.70;459.22;;;;;;;;;;;;;-58
2022/03/26 09:33:47;;;;;;;516.63;465.02;;;;;;;;;;;;;-61
2022/03/26 09:36:45;;;;;;;518.04;466.13;;;;;;;;;;;;;-50
2022/03/26 09:39:45;;;;;;;523.75;471.83;;;;;;;;;;;;;-51
2022/03/26 09:42:45;;;;;;;521.31;469.74;;;;;;;;;;;;;-53
2022/03/26 09:45:45;;;;;;;523.59;472.19;;;;;;;;;;;;;-57
2022/03/26 09:48:46;;;;;;;529.92;478.22;;;;;;;;;;;;;-57
2022/03/26 09:51:45;;;;;;;528.76;476.87;;;;;;;;;;;;;-56
2022/03/26 09:54:45;;;;;;;527.16;475.54;;;;;;;;;;;;;-54
2022/03/26 09:57:45;;;;;;;531.41;479.75;;;;;;;;;;;;;-54
2022/03/26 10:00:45;;;;;;;535.99;484.32;;;;;;;;;;;;;-54
2022/03/26 10:03:45;;;;;;;539.51;487.71;;;;;;;;;;;;;-56
2022/03/26 10:06:45;;;;;;;541.80;489.79;;;;;;;;;;;;;-57
2022/03/26 10:09:45;;;;;;;542.73;491.01;;;;;;;;;;;;;-54
2022/03/26 10:12:45;;;;;;;547.28;495.32;;;;;;;;;;;;;-56
2022/03/26 10:15:45;;;;;;;546.64;494.49;;;;;;;;;;;;;-56
2022/03/26 10:18:45;;;;;;;550.94;498.83;;;;;;;;;;;;;-57
2022/03/26 10:21:45;;;;;;;553.99;501.79;;;;;;;;;;;;;-53
2022/03/26 10:24:45;;;;;;;556.97;504.81;;;;;;;;;;;;;-55
2022/03/26 10:27:45;;;;;;;553.04;500.93;;;;;;;;;;;;;-55
2022/03/26 10:33:47;;;;;;;557.64;505.45;;;;;;;;;;;;;-55
2022/03/26 10:36:45;;;;;;;559.04;506.87;;;;;;;;;;;;;-55
2022/03/26 10:39:45;;;;;;;556.54;504.37;;;;;;;;;;;;;-55
2022/03/26 10:42:45;;;;;;;559.80;507.36;;;;;;;;;;;;;-53
2022/03/26 10:45:45;;;;;;;560.39;508.06;;;;;;;;;;;;;-57
2022/03/26 10:48:45;;;;;;;562.68;510.33;;;;;;;;;;;;;-54
2022/03/26 10:51:45;;;;;;;558.15;505.63;;;;;;;;;;;;;-51
2022/03/26 10:54:47;;;;;;;555.22;503.33;;;;;;;;;;;;;-51
2022/03/26 10:57:45;;;;;;;560.57;508.30;;;;;;;;;;;;;-51
2022/03/26 11:00:46;;;;;;;557.62;505.54;;;;;;;;;;;;;-50
2022/03/26 11:03:45;;;;;;;556.98;504.91;;;;;;;;;;;;;-51
2022/03/26 11:06:45;;;;;;;557.99;506.05;;;;;;;;;;;;;-50
2022/03/26 11:09:45;;;;;;;558.99;506.99;;;;;;;;;;;;;-51
2022/03/26 11:12:46;;;;;;;557.79;505.79;;;;;;;;;;;;;-51
2022/03/26 11:15:45;;;;;;;559.01;506.80;;;;;;;;;;;;;-51
2022/03/26 11:18:45;;;;;;;559.77;507.84;;;;;;;;;;;;;-53
2022/03/26 11:21:45;;;;;;;558.17;505.92;;;;;;;;;;;;;-54
2022/03/26 11:24:45;;;;;;;560.27;508.00;;;;;;;;;;;;;-53
2022/03/26 11:27:45;;;;;;;560.64;508.58;;;;;;;;;;;;;-55
2022/03/26 11:30:45;;;;;;;565.25;512.97;;;;;;;;;;;;;-59
2022/03/26 11:33:45;;;;;;;566.24;513.75;;;;;;;;;;;;;-58
2022/03/26 11:36:45;;;;;;;569.91;517.45;;;;;;;;;;;;;-57
2022/03/26 11:39:45;;;;;;;568.69;516.01;;;;;;;;;;;;;-57
2022/03/26 11:42:45;;;;;;;565.99;513.64;;;;;;;;;;;;;-54
2022/03/26 11:51:45;;;;;;;570.63;518.08;;;;;;;;;;;;;-57
2022/03/26 11:54:45;;;;;;;571.35;518.57;;;;;;;;;;;;;-52
2022/03/26 11:57:45;;;;;;;568.61;516.02;;;;;;;;;;;;;-57
2022/03/26 12:00:45;;;;;;;573.72;520.98;;;;;;;;;;;;;-51
2022/03/26 12:03:47;;;;;;;574.17;521.53;;;;;;;;;;;;;-57
2022/03/26 12:06:47;;;;;;;577.11;524.27;;;;;;;;;;;;;-51
2022/03/26 12:09:45;;;;;;;573.11;520.51;;;;;;;;;;;;;-51
2022/03/26 12:12:45;;;;;;;575.49;522.74;;;;;;;;;;;;;-51
2022/03/26 12:15:45;;;;;;;575.74;523.21;;;;;;;;;;;;;-57
2022/03/26 12:18:45;;;;;;;577.00;524.21;;;;;;;;;;;;;-51
2022/03/26 12:21:45;;;;;;;576.35;523.68;;;;;;;;;;;;;-58
2022/03/26 12:24:45;;;;;;;575.98;523.23;;;;;;;;;;;;;-57
2022/03/26 12:27:45;;;;;;;575.56;522.77;;;;;;;;;;;;;-58
2022/03/26 12:30:45;;;;;;;575.27;522.53;;;;;;;;;;;;;-57
2022/03/26 12:33:45;;;;;;;576.29;523.65;;;;;;;;;;;;;-58
2022/03/26 12:36:45;;;;;;;574.22;521.72;;;;;;;;;;;;;-58
2022/03/26 12:39:45;;;;;;;575.44;522.69;;;;;;;;;;;;;-57
2022/03/26 12:42:45;;;;;;;577.41;524.74;;;;;;;;;;;;;-50
2022/03/26 12:45:45;;;;;;;583.69;530.76;;;;;;;;;;;;;-51
2022/03/26 12:48:45;;;;;;;581.11;528.40;;;;;;;;;;;;;-58
2022/03/26 12:51:45;;;;;;;580.03;527.08;;;;;;;;;;;;;-51
2022/03/26 12:54:45;;;;;;;578.57;525.83;;;;;;;;;;;;;-51
2022/03/26 13:00:45;;;;;;;580.73;527.90;;;;;;;;;;;;;-58
2022/03/26 13:03:45;;;;;;;576.90;524.22;;;;;;;;;;;;;-51
2022/03/26 13:06:45;;;;;;;575.62;523.04;;;;;;;;;;;;;-51
2022/03/26 13:09:45;;;;;;;577.82;525.13;;;;;;;;;;;;;-58
2022/03/26 13:12:45;;;;;;;576.17;523.72;;;;;;;;;;;;;-51
2022/03/26 13:15:45;;;;;;;576.13;523.47;;;;;;;;;;;;;-51
2022/03/26 13:18:45;;;;;;;574.81;522.28;;;;;;;;;;;;;-52
2022/03/26 13:21:45;;;;;;;580.07;527.26;;;;;;;;;;;;;-51
2022/03/26 13:24:45;;;;;;;580.77;527.92;;;;;;;;;;;;;-58
2022/03/26 13:27:45;;;;;;;580.89;528.12;;;;;;;;;;;;;-57
2022/03/26 13:30:45;;;;;;;582.45;529.68;;;;;;;;;;;;;-58
2022/03/26 13:33:45;;;;;;;579.50;526.77;;;;;;;;;;;;;-58
2022/03/26 13:36:46;;;;;;;580.61;527.85;;;;;;;;;;;;;-57
2022/03/26 13:39:45;;;;;;;581.19;528.30;;;;;;;;;;;;;-57
2022/03/26 13:42:46;;;;;;;580.13;527.29;;;;;;;;;;;;;-57
2022/03/26 13:45:45;;;;;;;575.76;523.31;;;;;;;;;;;;;-57
2022/03/26 13:48:45;;;;;;;579.13;526.37;;;;;;;;;;;;;-57
2022/03/26 13:51:45;;;;;;;577.31;524.78;;;;;;;;;;;;;-57
2022/03/26 13:54:45;;;;;;;578.53;526.07;;;;;;;;;;;;;-51
2022/03/26 13:57:45;;;;;;;569.58;517.12;;;;;;;;;;;;;-53
2022/03/26 14:00:45;;;;;;;572.14;519.71;;;;;;;;;;;;;-54
2022/03/26 14:03:45;;;;;;;574.22;521.76;;;;;;;;;;;;;-56
2022/03/26 14:06:45;;;;;;;575.03;522.33;;;;;;;;;;;;;-47
2022/03/26 14:09:45;;;;;;;574.04;521.54;;;;;;;;;;;;;-55
2022/03/26 14:12:45;;;;;;;574.98;521.79;;;;;;;;;;;;;-55
2022/03/26 14:15:49;;;;;;;578.25;525.34;;;;;;;;;;;;;-54
2022/03/26 14:18:45;;;;;;;579.01;526.27;;;;;;;;;;;;;-57
2022/03/26 14:21:45;;;;;;;579.17;526.61;;;;;;;;;;;;;-57
2022/03/26 14:24:45;;;;;;;576.16;523.69;;;;;;;;;;;;;-56
2022/03/26 14:27:45;;;;;;;570.74;518.23;;;;;;;;;;;;;-56
2022/03/26 14:30:45;;;;;;;576.51;523.95;;;;;;;;;;;;;-55
2022/03/26 14:33:46;;;;;;;574.12;521.33;;;;;;;;;;;;;-55
2022/03/26 14:36:45;;;;;;;578.98;526.35;;;;;;;;;;;;;-54
2022/03/26 14:39:45;;;;;;;578.39;525.77;;;;;;;;;;;;;-56
2022/03/26 14:42:45;;;;;;;574.90;522.51;;;;;;;;;;;;;-56
2022/03/26 14:45:46;;;;;;;576.91;524.37;;;;;;;;;;;;;-57
2022/03/26 14:48:45;;;;;;;579.29;526.49;;;;;;;;;;;;;-57
2022/03/26 14:51:45;;;;;;;577.65;525.07;;;;;;;;;;;;;-56
2022/03/26 14:54:45;;;;;;;578.12;525.48;;;;;;;;;;;;;-56
2022/03/26 14:57:46;;;;;;;577.71;525.07;;;;;;;;;;;;;-55
2022/03/26 15:00:45;;;;;;;578.85;526.22;;;;;;;;;;;;;-54
2022/03/26 15:03:45;;;;;;;576.69;524.23;;;;;;;;;;;;;-55
2022/03/26 15:06:45;;;;;;;580.67;527.96;;;;;;;;;;;;;-56
2022/03/26 15:09:45;;;;;;;576.69;523.88;;;;;;;;;;;;;-55
2022/03/26 15:12:45;;;;;;;572.99;520.37;;;;;;;;;;;;;-54
2022/03/26 15:15:45;;;;;;;581.21;528.47;;;;;;;;;;;;;-53
2022/03/26 15:18:45;;;;;;;575.43;522.63;;;;;;;;;;;;;-53
2022/03/26 15:21:45;;;;;;;577.01;523.71;;;;;;;;;;;;;-52
2022/03/26 15:24:45;;;;;;;576.83;524.09;;;;;;;;;;;;;-52
2022/03/26 15:27:45;;;;;;;573.37;520.35;;;;;;;;;;;;;-52
2022/03/26 15:30:45;;;;;;;578.85;526.05;;;;;;;;;;;;;-53
2022/03/26 15:33:47;;;;;;;578.77;526.02;;;;;;;;;;;;;-51
2022/03/26 15:36:45;;;;;;;579.75;526.73;;;;;;;;;;;;;-55
2022/03/26 15:39:45;;;;;;;583.17;530.19;;;;;;;;;;;;;-54
2022/03/26 15:42:45;;;;;;;585.99;532.85;;;;;;;;;;;;;-55
2022/03/26 15:45:45;;;;;;;585.28;531.95;;;;;;;;;;;;;-55
2022/03/26 15:48:45;;;;;;;579.20;526.39;;;;;;;;;;;;;-56
2022/03/26 15:51:45;;;;;;;582.50;529.63;;;;;;;;;;;;;-55
2022/03/26 15:54:45;;;;;;;581.47;528.47;;;;;;;;;;;;;-55
2022/03/26 15:57:45;;;;;;;580.40;527.07;;;;;;;;;;;;;-56
2022/03/26 16:00:45;;;;;;;580.70;527.61;;;;;;;;;;;;;-53
2022/03/26 16:03:45;;;;;;;585.13;532.18;;;;;;;;;;;;;-52
2022/03/26 16:06:45;;;;;;;585.31;532.06;;;;;;;;;;;;;-57
2022/03/26 16:09:47;;;;;;;581.75;528.53;;;;;;;;;;;;;-56
2022/03/26 16:12:46;;;;;;;582.43;529.59;;;;;;;;;;;;;-57
2022/03/26 16:15:45;;;;;;;577.75;524.98;;;;;;;;;;;;;-61
2022/03/26 16:18:45;;;;;;;582.59;529.80;;;;;;;;;;;;;-51
2022/03/26 16:21:45;;;;;;;583.40;530.27;;;;;;;;;;;;;-55
2022/03/26 16:24:46;;;;;;;578.19;525.30;;;;;;;;;;;;;-57
2022/03/26 16:27:47;;;;;;;577.87;525.11;;;;;;;;;;;;;-56
2022/03/26 16:30:45;;;;;;;580.60;527.79;;;;;;;;;;;;;-56
2022/03/26 16:33:45;;;;;;;580.52;527.69;;;;;;;;;;;;;-60
2022/03/26 16:36:45;;;;;;;581.76;528.95;;;;;;;;;;;;;-60
2022/03/26 16:39:46;;;;;;;582.03;528.79;;;;;;;;;;;;;-58
2022/03/26 16:42:47;;;;;;;580.63;527.71;;;;;;;;;;;;;-55
2022/03/26 16:45:45;;;;;;;582.71;529.58;;;;;;;;;;;;;-57
2022/03/26 16:48:45;;;;;;;576.17;523.01;;;;;;;;;;;;;-56
2022/03/26 16:51:45;;;;;;;576.09;523.13;;;;;;;;;;;;;-54
2022/03/26 16:54:45;;;;;;;576.86;524.21;;;;;;;;;;;;;-54
2022/03/26 16:57:45;;;;;;;575.56;522.71;;;;;;;;;;;;;-51
2022/03/26 17:00:51;;;;;;;573.14;520.53;;;;;;;;;;;;;-54
2022/03/26 17:03:45;;;;;;;574.51;521.94;;;;;;;;;;;;;-56
2022/03/26 17:06:45;;;;;;;574.61;522.11;;;;;;;;;;;;;-57
2022/03/26 17:09:45;;;;;;;578.99;526.21;;;;;;;;;;;;;-56
2022/03/26 17:12:45;;;;;;;577.73;524.95;;;;;;;;;;;;;-51
2022/03/26 17:15:46;;;;;;;580.17;527.34;;;;;;;;;;;;;-56
2022/03/26 17:18:45;;;;;;;580.34;527.34;;;;;;;;;;;;;-57
2022/03/26 17:21:46;;;;;;;576.52;523.70;;;;;;;;;;;;;-57
2022/03/26 17:24:45;;;;;;;573.66;521.31;;;;;;;;;;;;;-59
2022/03/26 17:27:45;;;;;;;574.92;522.47;;;;;;;;;;;;;-60
2022/03/26 17:30:45;;;;;;;571.90;519.52;;;;;;;;;;;;;-59
2022/03/26 17:33:45;;;;;;;575.93;523.11;;;;;;;;;;;;;-50
2022/03/26 17:36:45;;;;;;;570.12;517.79;;;;;;;;;;;;;-56
2022/03/26 17:39:45;;;;;;;573.26;520.83;;;;;;;;;;;;;-53
2022/03/26 17:42:47;;;;;;;574.48;521.93;;;;;;;;;;;;;-58
2022/03/26 17:45:45;;;;;;;572.15;519.83;;;;;;;;;;;;;-58
2022/03/26 17:48:45;;;;;;;576.45;523.81;;;;;;;;;;;;;-58
2022/03/26 17:51:45;;;;;;;574.14;521.63;;;;;;;;;;;;;-57
2022/03/26 17:54:45;;;;;;;573.79;521.43;;;;;;;;;;;;;-54
2022/03/26 17:57:45;;;;;;;570.04;517.81;;;;;;;;;;;;;-59
2022/03/26 18:00:45;;;;;;;570.37;518.21;;;;;;;;;;;;;-51
2022/03/26 18:03:45;;;;;;;566.56;514.13;;;;;;;;;;;;;-57
2022/03/26 18:06:45;;;;;;;569.47;517.20;;;;;;;;;;;;;-58
2022/03/26 18:09:45;;;;;;;568.67;516.17;;;;;;;;;;;;;-51
2022/03/26 18:12:45;;;;;;;569.28;517.01;;;;;;;;;;;;;-53
2022/03/26 18:15:45;;;;;;;565.73;513.69;;;;;;;;;;;;;-53
2022/03/26 18:18:45;;;;;;;567.78;515.65;;;;;;;;;;;;;-51
2022/03/26 18:21:45;;;;;;;570.31;518.01;;;;;;;;;;;;;-58
2022/03/26 18:24:47;;;;;;;566.78;514.72;;;;;;;;;;;;;-59
2022/03/26 18:27:45;;;;;;;567.61;514.52;;;;;;;;;;;;;-56
2022/03/26 18:30:45;;;;;;;566.30;514.00;;;;;;;;;;;;;-57
2022/03/26 18:33:45;;;;;;;566.33;514.03;;;;;;;;;;;;;-56
2022/03/26 18:36:45;;;;;;;565.91;513.70;;;;;;;;;;;;;-51
2022/03/26 18:39:45;;;;;;;562.81;510.49;;;;;;;;;;;;;-55
2022/03/26 18:42:45;;;;;;;563.20;511.12;;;;;;;;;;;;;-55
2022/03/26 18:45:45;;;;;;;562.90;510.69;;;;;;;;;;;;;-54
2022/03/26 18:48:45;;;;;;;563.92;511.82;;;;;;;;;;;;;-56
2022/03/26 18:51:45;;;;;;;563.67;511.70;;;;;;;;;;;;;-56
2022/03/26 18:54:45;;;;;;;564.25;512.22;;;;;;;;;;;;;-55
2022/03/26 18:57:45;;;;;;;563.11;511.08;;;;;;;;;;;;;-56
2022/03/26 19:00:45;;;;;;;566.08;513.95;;;;;;;;;;;;;-54
2022/03/26 19:03:45;;;;;;;565.57;513.48;;;;;;;;;;;;;-54
2022/03/26 19:06:45;;;;;;;559.43;507.61;;;;;;;;;;;;;-55
2022/03/26 19:09:45;;;;;;;560.65;508.74;;;;;;;;;;;;;-55
2022/03/26 19:12:45;;;;;;;560.11;508.12;;;;;;;;;;;;;-54
2022/03/26 19:15:45;;;;;;;557.99;506.23;;;;;;;;;;;;;-59
2022/03/26 19:18:45;;;;;;;555.37;503.69;;;;;;;;;;;;;-52
2022/03/26 19:21:45;;;;;;;559.26;507.31;;;;;;;;;;;;;-53
2022/03/26 19:24:45;;;;;;;554.01;502.31;;;;;;;;;;;;;-58
2022/03/26 19:27:45;;;;;;;553.91;502.08;;;;;;;;;;;;;-53
2022/03/26 19:30:45;;;;;;;559.00;507.15;;;;;;;;;;;;;-59
2022/03/26 19:33:45;;;;;;;557.01;505.17;;;;;;;;;;;;;-51
2022/03/26 19:36:45;;;;;;;559.49;507.68;;;;;;;;;;;;;-58
2022/03/26 19:39:45;;;;;;;558.74;506.95;;;;;;;;;;;;;-53
2022/03/26 19:42:45;;;;;;;559.43;506.36;;;;;;;;;;;;;-55
2022/03/26 19:45:45;;;;;;;558.91;507.15;;;;;;;;;;;;;-51
2022/03/26 19:48:45;;;;;;;560.70;508.85;;;;;;;;;;;;;-52
2022/03/26 19:51:45;;;;;;;558.05;506.05;;;;;;;;;;;;;-50
2022/03/26 19:54:45;;;;;;;558.06;505.95;;;;;;;;;;;;;-51
2022/03/26 19:57:45;;;;;;;557.67;505.63;;;;;;;;;;;;;-49
2022/03/26 20:00:45;;;;;;;558.59;506.50;;;;;;;;;;;;;-52
2022/03/26 20:03:45;;;;;;;555.23;503.40;;;;;;;;;;;;;-52
2022/03/26 20:06:45;;;;;;;557.13;505.11;;;;;;;;;;;;;-56
2022/03/26 20:09:45;;;;;;;559.83;507.82;;;;;;;;;;;;;-57
2022/03/26 20:12:46;;;;;;;557.18;505.25;;;;;;;;;;;;;-59
2022/03/26 20:15:45;;;;;;;559.29;507.21;;;;;;;;;;;;;-57
2022/03/26 20:18:45;;;;;;;553.95;502.13;;;;;;;;;;;;;-53
2022/03/26 20:21:45;;;;;;;549.92;498.15;;;;;;;;;;;;;-58
2022/03/26 20:24:47;;;;;;;551.07;499.30;;;;;;;;;;;;;-51
2022/03/26 20:27:45;;;;;;;552.53;500.77;;;;;;;;;;;;;-54
2022/03/26 20:30:45;;;;;;;557.11;505.00;;;;;;;;;;;;;-55
2022/03/26 20:33:45;;;;;;;552.89;501.02;;;;;;;;;;;;;-57
2022/03/26 20:36:45;;;;;;;553.17;501.25;;;;;;;;;;;;;-57
2022/03/26 20:39:45;;;;;;;555.45;503.66;;;;;;;;;;;;;-53
2022/03/26 20:42:45;;;;;;;555.04;502.97;;;;;;;;;;;;;-58
2022/03/26 20:45:45;;;;;;;556.60;504.35;;;;;;;;;;;;;-52
2022/03/26 20:48:46;;;;;;;558.35;506.37;;;;;;;;;;;;;-52
2022/03/26 20:51:45;;;;;;;557.64;505.78;;;;;;;;;;;;;-52
2022/03/26 20:54:45;;;;;;;552.11;499.83;;;;;;;;;;;;;-53
2022/03/26 20:57:45;;;;;;;558.31;506.19;;;;;;;;;;;;;-53
2022/03/26 21:00:45;;;;;;;550.11;498.21;;;;;;;;;;;;;-59
2022/03/26 21:03:45;;;;;;;548.79;497.13;;;;;;;;;;;;;-54
2022/03/26 21:06:45;;;;;;;555.31;502.93;;;;;;;;;;;;;-50
2022/03/26 21:09:45;;;;;;;551.37;498.79;;;;;;;;;;;;;-52
2022/03/26 21:12:45;;;;;;;554.91;503.16;;;;;;;;;;;;;-52
2022/03/26 21:15:45;;;;;;;547.89;495.89;;;;;;;;;;;;;-55
2022/03/26 21:18:45;;;;;;;551.39;499.37;;;;;;;;;;;;;-56
2022/03/26 21:21:45;;;;;;;554.53;502.50;;;;;;;;;;;;;-58